Time;durP1;ratioP1;P1;durP2;ratioP2;P2;SDS_P1;SDS_P2;PMS_P1;PMS_P2;Temp;Humidity;BMP_temperature;BMP_pressure;BME280_temperature;BME280_humidity;BME280_pressure;Samples;Min_cycle;Max_cycle;Signal;HPM_P1;HPM_P2
2022/06/24 00:02:10;;;;;;;3.22;1.95;;;22.20;61.10;;;;;;20750;6832;117524;31
2022/06/24 00:04:36;;;;;;;4.70;2.50;;;22.10;61.70;;;;;;20500;6852;338869;31
2022/06/24 00:07:03;;;;;;;3.43;1.83;;;22.30;61.50;;;;;;20782;6830;117349;31
2022/06/24 00:09:28;;;;;;;3.33;2.27;;;22.40;61.50;;;;;;20512;6830;281152;31
2022/06/24 00:12:04;;;;;;;2.60;2.10;;;22.60;60.20;;;;;;20711;6852;121256;31
2022/06/24 00:14:30;;;;;;;3.53;2.10;;;22.60;60.00;;;;;;20767;6830;117062;31
2022/06/24 00:17:00;;;;;;;4.87;2.43;;;22.30;60.30;;;;;;20572;6830;278002;31
2022/06/24 00:19:24;;;;;;;3.77;1.90;;;22.50;59.60;;;;;;20743;6832;117142;31
2022/06/24 00:22:01;;;;;;;3.27;2.13;;;22.50;60.00;;;;;;20759;6832;117611;31
2022/06/24 00:24:26;;;;;;;3.63;2.07;;;22.30;60.40;;;;;;20560;6830;278112;31
2022/06/24 00:26:51;;;;;;;3.45;2.35;;;22.60;60.00;;;;;;20558;6832;339912;31
2022/06/24 00:29:17;;;;;;;2.30;2.07;;;23.00;59.10;;;;;;20753;6832;119104;31
2022/06/24 00:32:06;;;;;;;2.60;2.10;;;22.90;59.00;;;;;;20571;6830;280971;31
2022/06/24 00:34:35;;;;;;;3.03;1.90;;;23.00;58.50;;;;;;20784;6830;116669;31
2022/06/24 00:37:20;;;;;;;3.80;2.30;;;22.90;59.10;;;;;;20575;6830;307483;31
2022/06/24 00:39:46;;;;;;;4.50;2.33;;;23.00;58.70;;;;;;20781;6830;117841;31
2022/06/24 00:42:11;;;;;;;2.53;2.30;;;22.90;58.90;;;;;;20728;6851;117206;31
2022/06/24 00:44:50;;;;;;;2.30;2.10;;;22.70;59.10;;;;;;20724;6852;121517;31
2022/06/24 00:47:16;;;;;;;2.40;2.10;;;22.40;59.40;;;;;;20499;6830;279953;31
2022/06/24 00:49:41;;;;;;;4.70;2.10;;;22.60;59.00;;;;;;20570;6832;279189;31
2022/06/24 00:52:11;;;;;;;3.93;2.30;;;22.90;58.70;;;;;;20556;6832;307441;31
2022/06/24 00:54:33;;;;;;;4.23;2.13;;;23.10;57.60;;;;;;20544;6832;308971;31
2022/06/24 00:56:58;;;;;;;4.60;2.50;;;23.30;57.40;;;;;;20559;6832;309797;31
2022/06/24 00:59:24;;;;;;;2.67;2.10;;;23.50;57.10;;;;;;20750;6832;118126;31
2022/06/24 01:01:49;;;;;;;3.40;2.03;;;23.30;57.70;;;;;;20779;6830;119812;31
2022/06/24 01:04:15;;;;;;;3.80;2.53;;;23.00;58.50;;;;;;20568;6830;280509;31
2022/06/24 01:06:40;;;;;;;5.10;2.60;;;23.00;57.90;;;;;;20572;6830;278123;31
2022/06/24 01:09:07;;;;;;;3.12;2.50;;;23.30;56.90;;;;;;20552;6830;338194;31
2022/06/24 01:11:38;;;;;;;2.57;2.10;;;23.40;57.00;;;;;;20765;6830;121575;31
2022/06/24 01:14:04;;;;;;;2.93;1.77;;;23.20;57.30;;;;;;20792;6830;116986;31
2022/06/24 01:16:29;;;;;;;2.90;1.70;;;22.80;58.00;;;;;;20778;6830;117305;31
2022/06/24 01:18:55;;;;;;;4.07;2.23;;;22.50;58.80;;;;;;20568;6830;280693;31
2022/06/24 01:21:37;;;;;;;4.33;2.67;;;22.70;59.00;;;;;;20743;6830;145713;31
2022/06/24 01:24:09;;;;;;;3.70;2.23;;;22.70;59.00;;;;;;20576;6830;307159;31
2022/06/24 01:26:35;;;;;;;4.55;2.40;;;22.90;58.10;;;;;;20570;6830;278482;31
2022/06/24 01:29:00;;;;;;;3.77;1.93;;;23.10;57.10;;;;;;20796;6830;117431;31
2022/06/24 01:31:26;;;;;;;4.63;2.07;;;23.00;57.50;;;;;;20762;6830;118125;31
2022/06/24 01:33:51;;;;;;;3.83;2.25;;;22.70;58.20;;;;;;20572;6830;308361;31
2022/06/24 01:36:17;;;;;;;3.40;2.10;;;22.80;57.90;;;;;;20789;6828;116879;31
2022/06/24 01:38:42;;;;;;;3.75;2.50;;;22.70;57.50;;;;;;20585;6830;278002;31
2022/06/24 01:41:11;;;;;;;2.83;2.10;;;22.90;58.00;;;;;;20583;6830;279044;31
2022/06/24 01:43:37;;;;;;;3.30;2.55;;;23.20;58.30;;;;;;20563;6830;340096;31
2022/06/24 01:46:02;;;;;;;3.47;2.30;;;23.40;57.90;;;;;;20505;6851;279286;31
2022/06/24 01:48:28;;;;;;;3.30;2.25;;;23.60;57.40;;;;;;20576;6830;307549;31
2022/06/24 01:50:53;;;;;;;4.30;2.30;;;23.70;57.30;;;;;;20781;6830;116943;31
2022/06/24 01:53:19;;;;;;;2.80;2.00;;;23.50;57.50;;;;;;20747;6832;120268;31
2022/06/24 01:55:45;;;;;;;4.37;2.40;;;23.10;58.40;;;;;;20765;6832;117688;31
2022/06/24 01:58:10;;;;;;;4.23;2.90;;;22.80;58.90;;;;;;20552;6832;308392;31
2022/06/24 02:00:36;;;;;;;2.37;1.90;;;23.00;59.20;;;;;;20711;6852;117838;31
2022/06/24 02:03:05;;;;;;;3.30;2.33;;;22.90;59.20;;;;;;20787;6830;116820;31
2022/06/24 02:05:30;;;;;;;3.47;2.60;;;22.70;59.90;;;;;;20560;6830;308583;31
2022/06/24 02:07:56;;;;;;;4.50;2.47;;;22.80;58.30;;;;;;20775;6832;117103;31
2022/06/24 02:13:27;;;;;;;2.20;2.00;;;22.90;58.00;;;;;;20781;6830;117042;31
2022/06/24 02:15:58;;;;;;;3.40;2.30;;;22.80;58.40;;;;;;20783;6830;117641;31
2022/06/24 02:18:24;;;;;;;4.87;2.43;;;22.50;59.10;;;;;;20777;6832;117550;31
2022/06/24 02:20:49;;;;;;;3.67;2.50;;;22.20;59.50;;;;;;20509;6852;310074;31
2022/06/24 02:23:15;;;;;;;2.80;2.10;;;22.40;58.70;;;;;;20560;6830;305669;31
2022/06/24 02:25:41;;;;;;;3.95;2.25;;;22.80;58.30;;;;;;20568;6830;337159;31
2022/06/24 02:28:06;;;;;;;2.78;2.28;;;23.00;57.70;;;;;;20575;6830;310786;31
2022/06/24 02:30:32;;;;;;;3.73;2.37;;;23.30;57.30;;;;;;20553;6832;307913;31
2022/06/24 02:32:57;;;;;;;2.80;2.10;;;23.40;56.80;;;;;;20772;6832;116825;31
2022/06/24 02:35:23;;;;;;;3.10;2.00;;;23.20;57.30;;;;;;20539;6830;310662;31
2022/06/24 02:37:48;;;;;;;3.50;2.23;;;23.20;57.20;;;;;;20777;6830;120075;31
2022/06/24 02:42:59;;;;;;;5.63;2.40;;;23.00;57.00;;;;;;20787;6830;116991;31
2022/06/24 02:45:25;;;;;;;3.47;2.33;;;22.80;57.40;;;;;;20753;6830;118001;31
2022/06/24 02:47:52;;;;;;;4.55;2.30;;;22.50;57.80;;;;;;20562;6829;307541;31
2022/06/24 02:50:18;;;;;;;3.03;2.33;;;22.50;57.10;;;;;;20780;6830;122279;31
2022/06/24 02:52:43;;;;;;;3.73;2.43;;;22.40;57.50;;;;;;20565;6830;310533;31
2022/06/24 02:55:09;;;;;;;4.20;2.50;;;22.50;57.50;;;;;;20761;6830;116942;31
2022/06/24 02:57:34;;;;;;;5.57;2.22;;;22.40;58.00;;;;;;20789;6830;185114;31
2022/06/24 03:00:00;;;;;;;5.53;2.40;;;22.10;58.60;;;;;;20801;6830;117842;31
2022/06/24 03:02:26;;;;;;;2.87;2.50;;;21.90;59.20;;;;;;20576;6830;311752;31
2022/06/24 03:04:51;;;;;;;2.85;2.40;;;22.10;58.30;;;;;;20790;6830;117039;31
2022/06/24 03:07:17;;;;;;;3.35;2.25;;;22.00;58.30;;;;;;20548;6830;311214;31
2022/06/24 03:09:43;;;;;;;4.50;2.60;;;22.10;58.40;;;;;;20576;6830;308953;31
2022/06/24 03:12:08;;;;;;;7.55;2.47;;;22.40;57.40;;;;;;20795;6830;118187;31
2022/06/24 03:14:34;;;;;;;3.30;2.10;;;22.30;57.60;;;;;;20797;6830;118993;31
2022/06/24 03:16:59;;;;;;;4.00;2.50;;;22.00;58.20;;;;;;20579;6830;289953;31
2022/06/24 03:19:25;;;;;;;4.03;2.30;;;22.00;57.70;;;;;;20758;6830;118505;31
2022/06/24 03:21:50;;;;;;;6.25;2.08;;;22.00;58.30;;;;;;20783;6830;117329;31
2022/06/24 03:24:16;;;;;;;4.40;2.43;;;21.80;58.80;;;;;;20568;6830;279655;31
2022/06/24 03:26:41;;;;;;;6.57;2.73;;;21.90;58.80;;;;;;20777;6830;116798;31
2022/06/24 03:29:07;;;;;;;5.50;2.57;;;21.90;58.70;;;;;;20777;6830;117506;31
2022/06/24 03:31:32;;;;;;;3.27;2.50;;;21.70;59.00;;;;;;20747;6830;117933;31
2022/06/24 03:33:58;;;;;;;3.40;2.40;;;21.50;59.50;;;;;;20581;6830;309258;31
2022/06/24 03:36:24;;;;;;;5.03;2.13;;;21.70;58.50;;;;;;20792;6830;118023;31
2022/06/24 03:38:49;;;;;;;3.90;2.77;;;21.70;58.80;;;;;;20585;6830;309213;31
2022/06/24 03:41:15;;;;;;;3.30;2.60;;;21.90;58.30;;;;;;20583;6830;308780;31
2022/06/24 03:43:40;;;;;;;26.97;4.03;;;22.20;57.80;;;;;;20783;6830;117179;31
2022/06/24 03:46:06;;;;;;;2.80;2.53;;;22.00;58.20;;;;;;20787;6830;117204;31
2022/06/24 03:48:31;;;;;;;12.95;3.72;;;21.70;59.10;;;;;;20573;6830;278947;31
2022/06/24 03:50:57;;;;;;;29.45;5.57;;;21.90;59.30;;;;;;20578;6830;340745;31
2022/06/24 03:53:22;;;;;;;100.17;7.00;;;22.20;59.00;;;;;;20773;6830;117720;31
2022/06/24 03:55:49;;;;;;;105.27;6.53;;;22.20;59.10;;;;;;20801;6830;117597;31
2022/06/24 03:58:15;;;;;;;32.90;5.20;;;22.00;59.70;;;;;;20591;6828;309144;31
2022/06/24 04:00:40;;;;;;;59.27;5.97;;;22.10;59.80;;;;;;20580;6830;340882;31
2022/06/24 04:03:06;;;;;;;92.60;7.03;;;22.40;59.00;;;;;;20582;6830;307366;31
2022/06/24 04:05:31;;;;;;;175.57;7.78;;;22.70;58.30;;;;;;20770;6830;121802;31
2022/06/24 04:07:57;;;;;;;196.37;8.53;;;22.60;58.60;;;;;;20782;6830;119774;31
2022/06/24 04:10:22;;;;;;;58.83;5.53;;;22.30;59.20;;;;;;20796;6830;117345;31
2022/06/24 04:12:48;;;;;;;65.50;6.13;;;22.00;59.80;;;;;;20585;6830;277896;31
2022/06/24 04:15:14;;;;;;;31.93;5.20;;;22.20;59.30;;;;;;20579;6830;308342;31
2022/06/24 04:17:39;;;;;;;15.87;4.70;;;22.50;58.30;;;;;;20767;6830;118114;31
2022/06/24 04:20:05;;;;;;;107.67;5.60;;;22.40;58.60;;;;;;20715;6852;117596;31
2022/06/24 04:22:30;;;;;;;12.63;4.07;;;22.10;59.10;;;;;;20780;6830;121323;31
2022/06/24 04:24:56;;;;;;;4.50;4.20;;;21.90;59.50;;;;;;20565;6830;279241;31
2022/06/24 04:27:22;;;;;;;5.00;3.80;;;22.10;59.00;;;;;;20488;6852;303528;31
2022/06/24 04:29:47;;;;;;;4.27;3.87;;;22.40;58.10;;;;;;20573;6830;310408;31
2022/06/24 04:32:13;;;;;;;4.80;3.47;;;22.60;57.20;;;;;;20550;6830;308035;31
2022/06/24 04:34:38;;;;;;;3.40;3.10;;;22.80;56.80;;;;;;20572;6832;295899;31
2022/06/24 04:37:08;;;;;;;3.75;3.33;;;23.00;56.30;;;;;;20575;6832;307423;31
2022/06/24 04:39:34;;;;;;;4.80;2.80;;;23.10;56.10;;;;;;20778;6830;129869;31
2022/06/24 04:42:00;;;;;;;4.47;3.10;;;22.80;56.60;;;;;;20767;6830;117566;31
2022/06/24 04:44:25;;;;;;;3.20;2.90;;;22.40;57.50;;;;;;20784;6830;121839;31
2022/06/24 04:46:51;;;;;;;3.58;2.85;;;22.10;58.40;;;;;;20576;6830;308131;31
2022/06/24 04:49:16;;;;;;;4.00;3.07;;;22.20;58.20;;;;;;20557;6830;307483;31
2022/06/24 04:51:42;;;;;;;2.95;2.70;;;22.50;57.50;;;;;;20599;6830;307490;31
2022/06/24 04:54:07;;;;;;;4.00;2.77;;;22.80;57.10;;;;;;20784;6830;117496;31
2022/06/24 04:56:33;;;;;;;3.72;2.80;;;22.70;57.50;;;;;;20574;6830;306797;31
2022/06/24 04:58:59;;;;;;;4.90;2.70;;;22.70;57.40;;;;;;20790;6830;116848;31
2022/06/24 05:01:24;;;;;;;3.03;2.80;;;22.60;57.80;;;;;;20764;6830;117273;31
2022/06/24 05:03:50;;;;;;;5.22;2.90;;;22.40;58.40;;;;;;20570;6830;306752;31
2022/06/24 05:06:15;;;;;;;2.90;2.60;;;22.40;58.00;;;;;;20781;6830;116875;31
2022/06/24 05:08:41;;;;;;;4.90;3.50;;;22.40;58.40;;;;;;20575;6830;308283;31
2022/06/24 05:11:06;;;;;;;3.03;2.83;;;22.50;58.80;;;;;;20789;6829;117610;31
2022/06/24 05:13:32;;;;;;;4.30;3.40;;;22.50;59.10;;;;;;20562;6830;281698;31
2022/06/24 05:15:58;;;;;;;3.10;2.87;;;22.60;59.00;;;;;;20797;6830;117567;31
2022/06/24 05:18:23;;;;;;;5.33;3.50;;;22.60;59.10;;;;;;20564;6830;307571;31
2022/06/24 05:20:49;;;;;;;5.07;3.13;;;22.70;58.70;;;;;;20570;6830;307802;31
2022/06/24 05:23:14;;;;;;;5.53;3.27;;;23.00;58.20;;;;;;20576;6830;279154;31
2022/06/24 05:25:40;;;;;;;4.18;2.95;;;23.20;57.70;;;;;;20774;6830;120583;31
2022/06/24 05:28:08;;;;;;;5.27;3.07;;;23.00;58.10;;;;;;20790;6830;116671;31
2022/06/24 05:30:34;;;;;;;5.43;3.30;;;22.80;58.90;;;;;;20581;6830;336454;31
2022/06/24 05:32:59;;;;;;;3.60;3.30;;;22.90;58.60;;;;;;20579;6830;307283;31
2022/06/24 05:35:25;;;;;;;5.33;3.17;;;23.20;58.50;;;;;;20705;6852;118414;31
2022/06/24 05:37:50;;;;;;;3.75;3.33;;;23.00;59.30;;;;;;20572;6830;307785;31
2022/06/24 05:40:16;;;;;;;4.80;3.20;;;23.10;59.00;;;;;;20781;6830;117253;31
2022/06/24 05:42:41;;;;;;;3.75;2.90;;;23.10;59.30;;;;;;20555;6832;279777;31
2022/06/24 05:45:07;;;;;;;5.37;3.17;;;23.20;58.00;;;;;;20572;6832;338724;31
2022/06/24 05:47:33;;;;;;;3.27;2.97;;;23.50;57.60;;;;;;20531;6832;278604;31
2022/06/24 05:49:59;;;;;;;3.83;3.43;;;23.70;57.50;;;;;;20798;6830;117439;31
2022/06/24 05:55:10;;;;;;;5.30;3.35;;;23.30;58.60;;;;;;20582;6830;337896;31
2022/06/24 05:57:35;;;;;;;4.27;3.40;;;23.50;57.60;;;;;;20759;6830;116912;31
2022/06/24 06:00:01;;;;;;;7.57;3.40;;;23.50;57.80;;;;;;20557;6830;308420;31
2022/06/24 06:02:26;;;;;;;2.97;2.67;;;23.70;56.80;;;;;;20765;6830;117104;31
2022/06/24 06:04:52;;;;;;;5.63;3.30;;;23.70;57.40;;;;;;20770;6830;117047;31
2022/06/24 06:07:17;;;;;;;4.17;3.13;;;23.70;58.00;;;;;;20760;6830;117055;31
2022/06/24 06:09:43;;;;;;;6.87;3.10;;;23.50;58.30;;;;;;20709;6830;119737;31
2022/06/24 06:12:08;;;;;;;5.20;3.27;;;23.70;59.70;;;;;;20768;6830;118721;31
2022/06/24 06:14:34;;;;;;;3.17;2.87;;;24.10;60.20;;;;;;20654;6852;122387;31
2022/06/24 06:17:00;;;;;;;3.77;2.70;;;24.70;60.10;;;;;;20762;6830;117018;31
2022/06/24 06:19:25;;;;;;;4.68;2.97;;;25.30;59.40;;;;;;20478;6852;308842;31
2022/06/24 06:21:51;;;;;;;3.87;2.63;;;26.30;54.30;;;;;;20769;6828;117070;31
2022/06/24 06:24:16;;;;;;;6.70;2.70;;;26.90;54.40;;;;;;20756;6831;117538;31
2022/06/24 06:26:42;;;;;;;5.50;2.40;;;27.30;54.20;;;;;;20772;6832;118035;31
2022/06/24 06:29:07;;;;;;;6.47;2.80;;;27.70;53.80;;;;;;20531;6843;309543;31
2022/06/24 06:31:33;;;;;;;5.05;2.75;;;28.40;49.70;;;;;;20516;6837;292431;31
2022/06/24 06:33:59;;;;;;;4.05;2.50;;;29.30;47.80;;;;;;20568;6830;277615;31
2022/06/24 06:36:25;;;;;;;4.47;2.17;;;30.00;46.30;;;;;;20789;6830;119989;31
2022/06/24 06:38:51;;;;;;;4.53;2.33;;;30.10;47.40;;;;;;20764;6832;117565;31
2022/06/24 06:41:19;;;;;;;4.57;2.50;;;30.20;48.00;;;;;;20543;6832;336248;31
2022/06/24 06:43:44;;;;;;;5.00;2.40;;;30.60;45.00;;;;;;20550;6832;282725;31
2022/06/24 06:46:10;;;;;;;2.53;2.20;;;31.20;43.50;;;;;;20563;6832;292271;31
2022/06/24 06:48:39;;;;;;;4.57;2.23;;;31.70;41.80;;;;;;20778;6832;117311;31
2022/06/24 06:51:01;;;;;;;5.77;2.20;;;31.70;43.10;;;;;;20525;6832;312266;31
2022/06/24 06:53:27;;;;;;;4.43;2.12;;;31.90;41.10;;;;;;20478;6852;311738;31
2022/06/24 06:55:52;;;;;;;5.87;1.90;;;32.30;40.60;;;;;;20771;6830;120610;31
2022/06/24 06:58:18;;;;;;;3.53;2.07;;;32.20;41.60;;;;;;20532;6830;336838;31
2022/06/24 07:00:44;;;;;;;4.73;2.10;;;32.50;40.30;;;;;;20502;6852;281385;31
2022/06/24 07:03:09;;;;;;;4.25;2.28;;;32.90;39.20;;;;;;20566;6830;293900;31
2022/06/24 07:05:36;;;;;;;3.63;2.03;;;33.20;39.40;;;;;;20554;6830;278617;31
2022/06/24 07:08:00;;;;;;;3.60;2.33;;;33.40;39.50;;;;;;20780;6832;117265;31
2022/06/24 07:10:26;;;;;;;4.03;1.83;;;33.20;39.80;;;;;;20781;6832;117449;31
2022/06/24 07:12:51;;;;;;;4.90;2.05;;;32.80;40.40;;;;;;20578;6832;307829;31
2022/06/24 07:15:17;;;;;;;4.40;2.03;;;32.80;39.90;;;;;;20757;6832;117277;31
2022/06/24 07:17:42;;;;;;;4.60;2.30;;;32.70;40.40;;;;;;20569;6832;302707;31
2022/06/24 07:20:08;;;;;;;3.47;2.28;;;32.70;39.90;;;;;;20514;6852;280068;31
2022/06/24 07:22:34;;;;;;;3.33;2.10;;;32.70;39.90;;;;;;20580;6830;279056;31
2022/06/24 07:24:59;;;;;;;3.78;2.00;;;32.50;40.70;;;;;;20575;6832;310132;31
2022/06/24 07:27:25;;;;;;;2.60;2.00;;;32.30;40.20;;;;;;20761;6832;121149;31
2022/06/24 07:29:50;;;;;;;4.43;2.40;;;32.00;41.10;;;;;;20567;6832;279344;31
2022/06/24 07:32:16;;;;;;;5.40;2.40;;;31.80;41.90;;;;;;20564;6832;297560;31
2022/06/24 07:34:42;;;;;;;2.57;2.17;;;32.00;41.80;;;;;;20566;6830;309125;31
2022/06/24 07:37:07;;;;;;;4.57;2.08;;;32.10;40.10;;;;;;20787;6832;123439;31
2022/06/24 07:39:33;;;;;;;2.55;1.90;;;31.90;40.80;;;;;;20547;6830;337019;31
2022/06/24 07:41:58;;;;;;;4.63;2.30;;;31.70;39.70;;;;;;20790;6830;118456;31
2022/06/24 07:44:24;;;;;;;3.13;1.90;;;31.20;40.30;;;;;;20779;6830;117760;31
2022/06/24 07:46:49;;;;;;;2.73;2.20;;;30.70;41.40;;;;;;20579;6830;307999;31
2022/06/24 07:49:15;;;;;;;2.87;1.87;;;30.50;40.90;;;;;;20569;6830;307876;31
2022/06/24 07:51:40;;;;;;;4.10;2.23;;;30.50;41.60;;;;;;20760;6830;122136;31
2022/06/24 07:54:07;;;;;;;3.83;2.10;;;30.10;42.10;;;;;;20572;6830;340598;31
2022/06/24 07:59:18;;;;;;;3.67;1.93;;;29.70;42.70;;;;;;20768;6830;117656;31
2022/06/24 08:01:44;;;;;;;4.37;2.10;;;29.30;43.80;;;;;;20782;6830;119447;31
2022/06/24 08:04:09;;;;;;;4.63;2.10;;;29.10;44.70;;;;;;20572;6830;278490;31
2022/06/24 08:06:38;;;;;;;3.67;2.40;;;29.30;43.10;;;;;;20787;6830;117249;31
2022/06/24 08:09:03;;;;;;;2.57;2.10;;;29.30;43.70;;;;;;20784;6830;117431;31
2022/06/24 08:11:29;;;;;;;3.28;2.10;;;29.40;44.30;;;;;;20770;6830;120117;31
2022/06/24 08:13:54;;;;;;;2.47;2.03;;;29.50;44.30;;;;;;20787;6830;117053;31
2022/06/24 08:16:21;;;;;;;6.83;2.40;;;29.50;43.90;;;;;;20782;6830;121860;31
2022/06/24 08:18:45;;;;;;;2.53;1.92;;;29.60;44.10;;;;;;20580;6830;306629;31
2022/06/24 08:21:11;;;;;;;3.25;2.10;;;30.00;40.10;;;;;;20553;6830;301995;31
2022/06/24 08:23:37;;;;;;;3.20;1.93;;;30.50;41.10;;;;;;20755;6830;143307;31
2022/06/24 08:26:02;;;;;;;2.33;1.80;;;30.60;41.60;;;;;;20785;6830;117118;31
2022/06/24 08:28:28;;;;;;;2.90;1.93;;;30.50;41.60;;;;;;20794;6830;117821;31
2022/06/24 08:30:53;;;;;;;3.10;1.83;;;30.40;41.80;;;;;;20784;6830;116901;31
2022/06/24 08:33:19;;;;;;;3.10;2.10;;;30.30;41.90;;;;;;20523;6852;278781;31
2022/06/24 08:35:44;;;;;;;3.40;2.12;;;30.60;41.00;;;;;;20611;6830;277891;31
2022/06/24 08:38:11;;;;;;;3.33;1.90;;;31.00;42.00;;;;;;20602;6830;308282;31
2022/06/24 08:40:36;;;;;;;5.17;1.90;;;31.50;39.00;;;;;;20775;6832;117395;31
2022/06/24 08:43:01;;;;;;;1.70;1.60;;;31.50;40.00;;;;;;20776;6832;117055;31
2022/06/24 08:45:27;;;;;;;2.37;1.73;;;31.40;40.20;;;;;;20769;6830;117864;31
2022/06/24 08:47:52;;;;;;;4.47;2.37;;;31.30;40.50;;;;;;20567;6832;308403;31
2022/06/24 08:50:18;;;;;;;3.30;1.90;;;31.50;39.30;;;;;;20714;6851;116107;31
2022/06/24 08:52:47;;;;;;;2.72;2.00;;;31.50;39.60;;;;;;20582;6830;279134;31
2022/06/24 08:55:12;;;;;;;3.00;2.07;;;31.50;39.00;;;;;;20784;6830;118257;31
2022/06/24 08:57:38;;;;;;;3.27;2.30;;;31.50;39.40;;;;;;20738;6832;116803;31
2022/06/24 09:00:04;;;;;;;2.92;2.22;;;31.30;39.60;;;;;;20525;6851;309134;31
2022/06/24 09:02:29;;;;;;;2.87;2.10;;;31.40;38.20;;;;;;20583;6830;284160;31
2022/06/24 09:04:55;;;;;;;2.87;2.17;;;31.70;37.00;;;;;;20805;6830;116834;31
2022/06/24 09:07:25;;;;;;;2.50;2.00;;;31.70;38.10;;;;;;20576;6832;307054;31
2022/06/24 09:10:01;;;;;;;2.87;2.27;;;31.80;38.40;;;;;;20865;6832;117142;31
2022/06/24 09:12:31;;;;;;;2.80;2.00;;;31.80;38.40;;;;;;20620;6832;308450;31
2022/06/24 09:15:02;;;;;;;4.60;2.10;;;31.90;38.90;;;;;;20782;6832;116008;31
2022/06/24 09:17:28;;;;;;;2.20;1.97;;;31.90;39.20;;;;;;20835;6832;126215;31
2022/06/24 09:19:53;;;;;;;2.07;1.70;;;31.80;39.30;;;;;;20787;6852;116475;31
2022/06/24 09:22:22;;;;;;;5.20;1.90;;;31.60;38.80;;;;;;20824;6830;116780;31
2022/06/24 09:24:50;;;;;;;2.97;2.00;;;31.60;38.80;;;;;;20635;6832;306641;31
2022/06/24 09:27:14;;;;;;;3.40;1.77;;;31.90;36.60;;;;;;20566;6832;308695;31
2022/06/24 09:29:48;;;;;;;2.93;1.87;;;32.10;37.50;;;;;;20781;6830;116844;31
2022/06/24 09:32:12;;;;;;;3.87;1.63;;;32.20;37.50;;;;;;20795;6830;117627;31
2022/06/24 09:34:38;;;;;;;2.87;1.70;;;32.10;37.70;;;;;;20799;6830;118382;31
2022/06/24 09:37:05;;;;;;;1.83;1.60;;;32.00;37.70;;;;;;20591;6830;278341;31
2022/06/24 09:39:30;;;;;;;1.37;1.20;;;32.30;35.80;;;;;;20774;6830;130687;31
2022/06/24 09:41:56;;;;;;;2.67;1.92;;;32.40;36.20;;;;;;20575;6830;338604;31
2022/06/24 09:44:21;;;;;;;2.87;1.60;;;32.60;36.00;;;;;;20591;6830;310811;31
2022/06/24 09:46:48;;;;;;;2.00;1.50;;;32.90;35.70;;;;;;20583;6830;296889;31
2022/06/24 09:49:12;;;;;;;2.08;1.30;;;33.30;35.40;;;;;;20579;6830;308761;31
2022/06/24 09:51:39;;;;;;;1.43;1.33;;;33.60;34.00;;;;;;20782;6830;117211;31
2022/06/24 09:54:03;;;;;;;1.33;1.00;;;33.50;34.60;;;;;;20784;6830;117724;31
2022/06/24 09:56:29;;;;;;;2.03;1.40;;;33.30;34.60;;;;;;20794;6829;117027;31
2022/06/24 10:01:49;;;;;;;2.07;1.37;;;33.10;33.30;;;;;;20783;6830;117295;31
2022/06/24 10:04:17;;;;;;;3.27;1.70;;;32.90;33.90;;;;;;20555;6830;278364;31
2022/06/24 10:06:41;;;;;;;2.12;1.37;;;32.70;34.80;;;;;;20581;6830;338040;31
2022/06/24 10:09:07;;;;;;;2.73;1.43;;;32.80;35.50;;;;;;20796;6830;116989;31
2022/06/24 10:11:33;;;;;;;3.90;1.43;;;32.50;35.30;;;;;;20772;6830;118135;31
2022/06/24 10:13:58;;;;;;;1.92;1.40;;;32.20;35.90;;;;;;20581;6830;326204;31
2022/06/24 10:16:25;;;;;;;2.03;1.37;;;32.30;35.80;;;;;;20794;6830;117825;31
2022/06/24 10:18:50;;;;;;;2.80;1.50;;;32.30;35.80;;;;;;20800;6830;117525;31
2022/06/24 10:21:16;;;;;;;1.57;1.40;;;32.10;35.40;;;;;;20581;6830;308817;31
2022/06/24 10:23:44;;;;;;;2.83;1.47;;;32.20;34.20;;;;;;20779;6830;118892;31
2022/06/24 10:26:34;;;;;;;1.50;1.40;;;32.20;34.90;;;;;;20779;6830;116887;31
2022/06/24 10:29:05;;;;;;;2.23;1.40;;;32.10;35.50;;;;;;20578;6830;308367;31
2022/06/24 10:31:41;;;;;;;1.53;1.43;;;32.50;35.00;;;;;;20758;6830;117392;31
2022/06/24 10:34:07;;;;;;;1.67;1.27;;;32.70;35.20;;;;;;20552;6830;308990;31
2022/06/24 10:36:32;;;;;;;2.43;1.43;;;33.10;34.50;;;;;;20791;6830;117081;31
2022/06/24 10:39:08;;;;;;;2.70;1.80;;;33.20;34.20;;;;;;20572;6830;310720;31
2022/06/24 10:41:37;;;;;;;1.63;1.40;;;33.30;33.90;;;;;;20534;6830;303176;31
2022/06/24 10:44:02;;;;;;;2.20;1.53;;;33.40;32.30;;;;;;20567;6830;308148;31
2022/06/24 10:46:27;;;;;;;1.23;1.20;;;33.50;33.40;;;;;;20655;6852;117559;31
2022/06/24 10:48:56;;;;;;;1.07;1.07;;;33.40;32.80;;;;;;20787;6830;116981;31
2022/06/24 10:51:21;;;;;;;2.35;1.42;;;33.10;33.20;;;;;;20552;6830;306345;31
2022/06/24 10:54:09;;;;;;;1.57;1.47;;;33.00;31.80;;;;;;20586;6832;279090;31
2022/06/24 10:56:49;;;;;;;1.57;1.20;;;33.00;32.90;;;;;;20784;6832;117109;31
2022/06/24 10:59:18;;;;;;;2.63;1.23;;;32.80;33.20;;;;;;20553;6839;281645;31
2022/06/24 11:01:46;;;;;;;2.13;1.17;;;32.80;32.50;;;;;;20714;6843;118356;31
2022/06/24 11:04:14;;;;;;;1.93;1.10;;;32.70;33.00;;;;;;20694;6860;117286;31
2022/06/24 11:06:40;;;;;;;1.77;1.20;;;32.40;33.20;;;;;;20528;6845;279151;31
2022/06/24 11:09:06;;;;;;;2.08;1.48;;;32.40;33.30;;;;;;20452;6844;279174;31
2022/06/24 11:11:31;;;;;;;1.30;1.20;;;32.50;32.70;;;;;;20496;6845;310693;31
2022/06/24 11:13:57;;;;;;;1.63;1.20;;;32.70;32.70;;;;;;20550;6846;340761;31
2022/06/24 11:16:25;;;;;;;1.67;1.37;;;32.80;33.40;;;;;;20739;6847;121649;31
2022/06/24 11:18:51;;;;;;;1.50;1.20;;;32.50;33.50;;;;;;20531;6847;308636;31
2022/06/24 11:21:20;;;;;;;3.13;1.60;;;32.30;33.00;;;;;;20743;6847;116840;31
2022/06/24 11:23:48;;;;;;;1.58;1.30;;;32.00;33.30;;;;;;20502;6860;306903;31
2022/06/24 11:26:17;;;;;;;2.23;1.30;;;31.80;33.20;;;;;;20731;6845;116871;31
2022/06/24 11:28:42;;;;;;;2.17;1.40;;;31.50;33.90;;;;;;20536;6845;280555;31
2022/06/24 11:31:25;;;;;;;1.70;1.60;;;31.40;34.30;;;;;;20519;6845;340405;31
2022/06/24 11:33:51;;;;;;;1.52;1.37;;;31.40;34.50;;;;;;20527;6845;324981;31
2022/06/24 11:36:20;;;;;;;1.60;1.47;;;31.40;35.20;;;;;;20474;6852;281469;31
2022/06/24 11:38:59;;;;;;;2.10;1.50;;;31.40;34.90;;;;;;20483;6852;337889;31
2022/06/24 11:41:30;;;;;;;1.60;1.50;;;31.50;35.40;;;;;;20699;6852;117373;31
2022/06/24 11:43:56;;;;;;;2.43;1.63;;;31.40;35.50;;;;;;20707;6852;117102;31
2022/06/24 11:46:21;;;;;;;1.50;1.40;;;31.20;36.10;;;;;;20707;6852;117614;31
2022/06/24 11:48:47;;;;;;;1.55;1.40;;;31.20;37.00;;;;;;20505;6852;281460;31
2022/06/24 11:51:16;;;;;;;2.13;1.47;;;31.60;37.70;;;;;;20704;6852;117164;31
2022/06/24 11:53:43;;;;;;;2.03;1.40;;;32.00;36.40;;;;;;20453;6852;281223;31
2022/06/24 11:56:07;;;;;;;2.30;1.10;;;32.20;35.20;;;;;;20769;6852;116275;31
2022/06/24 11:58:33;;;;;;;1.35;1.25;;;32.30;35.00;;;;;;20551;6852;300426;31
2022/06/24 12:00:59;;;;;;;2.60;1.60;;;32.50;35.40;;;;;;20488;6852;309070;31
2022/06/24 12:03:25;;;;;;;1.40;1.30;;;32.80;34.70;;;;;;20477;6852;278781;31
2022/06/24 12:05:51;;;;;;;2.13;1.17;;;33.10;32.50;;;;;;20715;6852;117224;31
2022/06/24 12:08:16;;;;;;;1.50;1.40;;;33.00;32.40;;;;;;20692;6852;117015;31
2022/06/24 12:10:52;;;;;;;1.53;1.33;;;32.80;32.70;;;;;;20712;6852;122031;31
2022/06/24 12:13:24;;;;;;;1.00;1.00;;;32.60;33.00;;;;;;20686;6852;119136;31
2022/06/24 12:15:52;;;;;;;3.50;1.13;;;32.30;33.20;;;;;;20655;6867;117158;31
2022/06/24 12:18:18;;;;;;;1.50;1.03;;;32.10;33.30;;;;;;20529;6845;314073;31
2022/06/24 12:20:42;;;;;;;1.00;0.90;;;32.20;31.40;;;;;;20723;6844;116791;31
2022/06/24 12:23:15;;;;;;;1.00;0.90;;;32.00;32.40;;;;;;20506;6845;307890;31
2022/06/24 12:25:40;;;;;;;1.10;1.00;;;32.00;31.70;;;;;;20463;6845;308814;31
2022/06/24 12:28:15;;;;;;;1.23;1.10;;;32.00;30.50;;;;;;20504;6851;308042;31
2022/06/24 12:30:41;;;;;;;1.37;1.27;;;32.10;31.50;;;;;;20720;6845;117201;31
2022/06/24 12:33:07;;;;;;;2.00;1.20;;;31.80;32.50;;;;;;20531;6845;307650;31
2022/06/24 12:35:34;;;;;;;1.40;1.30;;;31.80;33.90;;;;;;20437;6860;336808;31
2022/06/24 12:37:59;;;;;;;1.40;1.27;;;31.90;33.60;;;;;;20723;6845;117141;31
2022/06/24 12:40:25;;;;;;;1.70;1.23;;;31.70;33.90;;;;;;20727;6845;117547;31
2022/06/24 12:43:07;;;;;;;1.40;1.30;;;31.40;34.30;;;;;;20696;6860;118116;31
2022/06/24 12:45:35;;;;;;;1.83;1.37;;;31.00;34.70;;;;;;20686;6845;120879;31
2022/06/24 12:50:59;;;;;;;2.63;1.20;;;30.80;34.50;;;;;;20731;6845;117999;31
2022/06/24 12:53:24;;;;;;;1.10;1.00;;;30.50;35.20;;;;;;20702;6845;122138;31
2022/06/24 12:55:51;;;;;;;1.30;1.20;;;30.20;36.00;;;;;;20743;6845;117524;31
2022/06/24 12:58:15;;;;;;;1.37;1.20;;;29.90;36.40;;;;;;20701;6860;117037;31
2022/06/24 13:00:42;;;;;;;1.53;1.30;;;29.60;36.90;;;;;;20530;6845;306893;31